sensor_id;sensor_type;location;lat;lon;timestamp;P1;durP1;ratioP1;P2;durP2;ratioP2
70744;SDS011;59284;31.390;34.904;2022-08-19T00:00:53;14.83;;;10.50;;
70744;SDS011;59284;31.390;34.904;2022-08-19T00:03:35;19.27;;;10.48;;
70744;SDS011;59284;31.390;34.904;2022-08-19T00:06:02;17.10;;;9.88;;
70744;SDS011;59284;31.390;34.904;2022-08-19T00:08:30;15.82;;;10.35;;
70744;SDS011;59284;31.390;34.904;2022-08-19T00:11:00;17.47;;;10.20;;
70744;SDS011;59284;31.390;34.904;2022-08-19T00:13:27;14.10;;;10.23;;
70744;SDS011;59284;31.390;34.904;2022-08-19T00:15:54;16.38;;;11.20;;
70744;SDS011;59284;31.390;34.904;2022-08-19T00:18:20;20.88;;;10.80;;
70744;SDS011;59284;31.390;34.904;2022-08-19T00:20:46;15.97;;;10.70;;
70744;SDS011;59284;31.390;34.904;2022-08-19T00:23:13;14.50;;;11.13;;
70744;SDS011;59284;31.390;34.904;2022-08-19T00:25:40;16.10;;;11.07;;
70744;SDS011;59284;31.390;34.904;2022-08-19T00:28:07;16.60;;;10.98;;
70744;SDS011;59284;31.390;34.904;2022-08-19T00:30:32;16.27;;;11.23;;
70744;SDS011;59284;31.390;34.904;2022-08-19T00:33:00;17.98;;;11.98;;
70744;SDS011;59284;31.390;34.904;2022-08-19T00:35:26;19.08;;;11.57;;
70744;SDS011;59284;31.390;34.904;2022-08-19T00:37:53;17.83;;;11.17;;
70744;SDS011;59284;31.390;34.904;2022-08-19T00:40:21;16.15;;;10.32;;
70744;SDS011;59284;31.390;34.904;2022-08-19T00:42:47;16.55;;;11.43;;
70744;SDS011;59284;31.390;34.904;2022-08-19T00:45:21;16.52;;;11.70;;
70744;SDS011;59284;31.390;34.904;2022-08-19T00:47:48;18.75;;;11.95;;
70744;SDS011;59284;31.390;34.904;2022-08-19T00:50:17;16.20;;;10.93;;
70744;SDS011;59284;31.390;34.904;2022-08-19T00:52:49;19.85;;;12.52;;
70744;SDS011;59284;31.390;34.904;2022-08-19T00:55:18;19.17;;;12.88;;
70744;SDS011;59284;31.390;34.904;2022-08-19T00:57:51;22.35;;;13.48;;
70744;SDS011;59284;31.390;34.904;2022-08-19T01:00:23;24.00;;;14.57;;
70744;SDS011;59284;31.390;34.904;2022-08-19T01:02:53;24.23;;;15.40;;
70744;SDS011;59284;31.390;34.904;2022-08-19T01:05:20;26.77;;;16.48;;
70744;SDS011;59284;31.390;34.904;2022-08-19T01:07:49;23.85;;;15.35;;
70744;SDS011;59284;31.390;34.904;2022-08-19T01:10:21;25.25;;;16.95;;
70744;SDS011;59284;31.390;34.904;2022-08-19T01:12:51;26.20;;;17.55;;
70744;SDS011;59284;31.390;34.904;2022-08-19T01:15:20;28.13;;;18.20;;
70744;SDS011;59284;31.390;34.904;2022-08-19T01:17:50;27.08;;;17.83;;
70744;SDS011;59284;31.390;34.904;2022-08-19T01:20:20;28.67;;;17.73;;
70744;SDS011;59284;31.390;34.904;2022-08-19T01:22:49;27.98;;;17.98;;
70744;SDS011;59284;31.390;34.904;2022-08-19T01:25:22;28.85;;;19.35;;
70744;SDS011;59284;31.390;34.904;2022-08-19T01:27:52;30.93;;;19.53;;
70744;SDS011;59284;31.390;34.904;2022-08-19T01:30:26;36.90;;;20.95;;
70744;SDS011;59284;31.390;34.904;2022-08-19T01:32:56;34.03;;;21.67;;
70744;SDS011;59284;31.390;34.904;2022-08-19T01:35:26;37.90;;;22.60;;
70744;SDS011;59284;31.390;34.904;2022-08-19T01:37:55;33.85;;;20.65;;
70744;SDS011;59284;31.390;34.904;2022-08-19T01:40:27;33.63;;;20.77;;
70744;SDS011;59284;31.390;34.904;2022-08-19T01:42:56;33.03;;;21.02;;
70744;SDS011;59284;31.390;34.904;2022-08-19T01:45:24;39.80;;;22.88;;
70744;SDS011;59284;31.390;34.904;2022-08-19T01:47:53;38.08;;;21.88;;
70744;SDS011;59284;31.390;34.904;2022-08-19T01:50:21;41.05;;;24.10;;
70744;SDS011;59284;31.390;34.904;2022-08-19T01:52:47;40.43;;;24.10;;
70744;SDS011;59284;31.390;34.904;2022-08-19T01:55:16;43.78;;;24.73;;
70744;SDS011;59284;31.390;34.904;2022-08-19T01:57:46;38.97;;;23.33;;
70744;SDS011;59284;31.390;34.904;2022-08-19T02:00:18;39.88;;;23.40;;
70744;SDS011;59284;31.390;34.904;2022-08-19T02:02:47;37.05;;;23.73;;
70744;SDS011;59284;31.390;34.904;2022-08-19T02:05:13;35.03;;;21.50;;
70744;SDS011;59284;31.390;34.904;2022-08-19T02:07:43;37.30;;;22.75;;
70744;SDS011;59284;31.390;34.904;2022-08-19T02:10:12;39.15;;;23.63;;
70744;SDS011;59284;31.390;34.904;2022-08-19T02:12:43;40.83;;;24.30;;
70744;SDS011;59284;31.390;34.904;2022-08-19T02:15:10;43.13;;;24.43;;
70744;SDS011;59284;31.390;34.904;2022-08-19T02:17:38;41.40;;;24.98;;
70744;SDS011;59284;31.390;34.904;2022-08-19T02:20:05;44.83;;;24.90;;
70744;SDS011;59284;31.390;34.904;2022-08-19T02:22:33;41.08;;;24.33;;
70744;SDS011;59284;31.390;34.904;2022-08-19T02:25:08;44.30;;;26.02;;
70744;SDS011;59284;31.390;34.904;2022-08-19T02:27:36;46.50;;;27.13;;
70744;SDS011;59284;31.390;34.904;2022-08-19T02:30:03;48.05;;;26.63;;
70744;SDS011;59284;31.390;34.904;2022-08-19T02:32:32;46.72;;;26.30;;
70744;SDS011;59284;31.390;34.904;2022-08-19T02:34:59;48.05;;;27.45;;
70744;SDS011;59284;31.390;34.904;2022-08-19T02:37:26;50.17;;;26.48;;
70744;SDS011;59284;31.390;34.904;2022-08-19T02:40:11;49.37;;;26.53;;
70744;SDS011;59284;31.390;34.904;2022-08-19T02:42:37;51.20;;;27.85;;
70744;SDS011;59284;31.390;34.904;2022-08-19T02:45:03;49.63;;;26.83;;
70744;SDS011;59284;31.390;34.904;2022-08-19T02:47:30;50.17;;;26.58;;
70744;SDS011;59284;31.390;34.904;2022-08-19T02:49:57;48.85;;;28.05;;
70744;SDS011;59284;31.390;34.904;2022-08-19T02:52:23;52.03;;;27.40;;
70744;SDS011;59284;31.390;34.904;2022-08-19T02:54:50;47.10;;;26.67;;
70744;SDS011;59284;31.390;34.904;2022-08-19T02:57:16;50.38;;;28.23;;
70744;SDS011;59284;31.390;34.904;2022-08-19T02:59:47;47.13;;;26.75;;
70744;SDS011;59284;31.390;34.904;2022-08-19T03:02:12;48.00;;;27.33;;
70744;SDS011;59284;31.390;34.904;2022-08-19T03:04:38;45.80;;;27.88;;
70744;SDS011;59284;31.390;34.904;2022-08-19T03:07:04;49.70;;;28.08;;
70744;SDS011;59284;31.390;34.904;2022-08-19T03:09:30;49.80;;;28.23;;
70744;SDS011;59284;31.390;34.904;2022-08-19T03:11:56;48.22;;;28.02;;
70744;SDS011;59284;31.390;34.904;2022-08-19T03:14:21;48.33;;;27.63;;
70744;SDS011;59284;31.390;34.904;2022-08-19T03:16:49;48.90;;;26.85;;
70744;SDS011;59284;31.390;34.904;2022-08-19T03:19:18;53.65;;;29.15;;
70744;SDS011;59284;31.390;34.904;2022-08-19T03:21:46;53.50;;;27.85;;
70744;SDS011;59284;31.390;34.904;2022-08-19T03:24:13;53.70;;;28.20;;
70744;SDS011;59284;31.390;34.904;2022-08-19T03:26:44;52.33;;;29.37;;
70744;SDS011;59284;31.390;34.904;2022-08-19T03:29:14;48.45;;;28.50;;
70744;SDS011;59284;31.390;34.904;2022-08-19T03:31:42;49.53;;;28.30;;
70744;SDS011;59284;31.390;34.904;2022-08-19T03:34:09;44.60;;;27.30;;
70744;SDS011;59284;31.390;34.904;2022-08-19T03:36:40;51.03;;;27.15;;
70744;SDS011;59284;31.390;34.904;2022-08-19T03:39:06;45.13;;;26.40;;
70744;SDS011;59284;31.390;34.904;2022-08-19T03:41:36;43.05;;;26.55;;
70744;SDS011;59284;31.390;34.904;2022-08-19T03:44:04;38.40;;;23.95;;
70744;SDS011;59284;31.390;34.904;2022-08-19T03:46:32;39.60;;;24.88;;
70744;SDS011;59284;31.390;34.904;2022-08-19T03:48:58;43.20;;;24.77;;
70744;SDS011;59284;31.390;34.904;2022-08-19T03:51:35;39.83;;;25.47;;
70744;SDS011;59284;31.390;34.904;2022-08-19T03:54:08;38.53;;;22.35;;
70744;SDS011;59284;31.390;34.904;2022-08-19T03:56:38;35.10;;;22.63;;
70744;SDS011;59284;31.390;34.904;2022-08-19T03:59:09;32.58;;;21.17;;
70744;SDS011;59284;31.390;34.904;2022-08-19T04:01:38;34.08;;;21.55;;
70744;SDS011;59284;31.390;34.904;2022-08-19T04:04:04;32.70;;;21.10;;
70744;SDS011;59284;31.390;34.904;2022-08-19T04:06:32;32.45;;;20.25;;
70744;SDS011;59284;31.390;34.904;2022-08-19T04:09:00;30.45;;;21.92;;
70744;SDS011;59284;31.390;34.904;2022-08-19T04:11:28;29.85;;;19.80;;
70744;SDS011;59284;31.390;34.904;2022-08-19T04:14:17;30.80;;;20.05;;
70744;SDS011;59284;31.390;34.904;2022-08-19T04:16:44;32.03;;;20.17;;
70744;SDS011;59284;31.390;34.904;2022-08-19T04:19:11;39.80;;;21.50;;
70744;SDS011;59284;31.390;34.904;2022-08-19T04:21:38;30.55;;;20.42;;
70744;SDS011;59284;31.390;34.904;2022-08-19T04:24:04;28.00;;;19.15;;
70744;SDS011;59284;31.390;34.904;2022-08-19T04:26:31;31.02;;;19.02;;
70744;SDS011;59284;31.390;34.904;2022-08-19T04:29:02;27.53;;;18.93;;
70744;SDS011;59284;31.390;34.904;2022-08-19T04:31:32;30.25;;;19.15;;
70744;SDS011;59284;31.390;34.904;2022-08-19T04:34:02;29.50;;;18.73;;
70744;SDS011;59284;31.390;34.904;2022-08-19T04:36:33;31.75;;;19.45;;
70744;SDS011;59284;31.390;34.904;2022-08-19T04:39:01;27.75;;;19.02;;
70744;SDS011;59284;31.390;34.904;2022-08-19T04:41:53;27.33;;;19.33;;
70744;SDS011;59284;31.390;34.904;2022-08-19T04:44:36;27.17;;;17.38;;
70744;SDS011;59284;31.390;34.904;2022-08-19T04:47:03;28.75;;;18.60;;
70744;SDS011;59284;31.390;34.904;2022-08-19T04:49:31;27.20;;;18.60;;
70744;SDS011;59284;31.390;34.904;2022-08-19T04:51:58;25.83;;;17.77;;
70744;SDS011;59284;31.390;34.904;2022-08-19T04:54:24;27.15;;;17.55;;
70744;SDS011;59284;31.390;34.904;2022-08-19T04:56:51;24.08;;;16.73;;
70744;SDS011;59284;31.390;34.904;2022-08-19T04:59:18;23.88;;;16.33;;
70744;SDS011;59284;31.390;34.904;2022-08-19T05:01:46;20.73;;;14.27;;
70744;SDS011;59284;31.390;34.904;2022-08-19T05:04:15;23.15;;;15.27;;
70744;SDS011;59284;31.390;34.904;2022-08-19T05:06:44;19.42;;;13.45;;
70744;SDS011;59284;31.390;34.904;2022-08-19T05:09:10;17.92;;;13.40;;
70744;SDS011;59284;31.390;34.904;2022-08-19T05:11:36;18.77;;;12.57;;
70744;SDS011;59284;31.390;34.904;2022-08-19T05:14:04;18.52;;;13.02;;
70744;SDS011;59284;31.390;34.904;2022-08-19T05:16:33;19.90;;;13.05;;
70744;SDS011;59284;31.390;34.904;2022-08-19T05:19:00;18.40;;;12.55;;
70744;SDS011;59284;31.390;34.904;2022-08-19T05:21:45;18.43;;;12.20;;
70744;SDS011;59284;31.390;34.904;2022-08-19T05:24:29;21.17;;;13.35;;
70744;SDS011;59284;31.390;34.904;2022-08-19T05:26:59;17.58;;;13.65;;
70744;SDS011;59284;31.390;34.904;2022-08-19T05:29:27;19.95;;;12.55;;
70744;SDS011;59284;31.390;34.904;2022-08-19T05:31:57;18.15;;;13.05;;
70744;SDS011;59284;31.390;34.904;2022-08-19T05:34:25;18.97;;;13.37;;
70744;SDS011;59284;31.390;34.904;2022-08-19T05:36:52;19.13;;;13.20;;
70744;SDS011;59284;31.390;34.904;2022-08-19T05:39:23;20.60;;;13.07;;
70744;SDS011;59284;31.390;34.904;2022-08-19T05:41:53;21.23;;;13.27;;
70744;SDS011;59284;31.390;34.904;2022-08-19T05:44:25;21.20;;;14.65;;
70744;SDS011;59284;31.390;34.904;2022-08-19T05:46:56;19.83;;;13.00;;
70744;SDS011;59284;31.390;34.904;2022-08-19T05:49:23;21.52;;;14.32;;
70744;SDS011;59284;31.390;34.904;2022-08-19T05:51:50;19.65;;;14.10;;
70744;SDS011;59284;31.390;34.904;2022-08-19T05:54:17;19.40;;;14.43;;
70744;SDS011;59284;31.390;34.904;2022-08-19T05:56:48;25.05;;;15.45;;
70744;SDS011;59284;31.390;34.904;2022-08-19T05:59:15;28.50;;;15.37;;
70744;SDS011;59284;31.390;34.904;2022-08-19T06:01:45;21.55;;;14.63;;
70744;SDS011;59284;31.390;34.904;2022-08-19T06:04:11;21.45;;;14.85;;
70744;SDS011;59284;31.390;34.904;2022-08-19T06:06:44;20.60;;;14.00;;
70744;SDS011;59284;31.390;34.904;2022-08-19T06:09:11;22.30;;;12.75;;
70744;SDS011;59284;31.390;34.904;2022-08-19T06:11:44;17.93;;;12.17;;
70744;SDS011;59284;31.390;34.904;2022-08-19T06:14:20;21.40;;;13.57;;
70744;SDS011;59284;31.390;34.904;2022-08-19T06:16:50;20.90;;;13.40;;
70744;SDS011;59284;31.390;34.904;2022-08-19T06:19:18;16.80;;;12.50;;
70744;SDS011;59284;31.390;34.904;2022-08-19T06:21:46;16.13;;;11.77;;
70744;SDS011;59284;31.390;34.904;2022-08-19T06:24:14;16.43;;;10.50;;
70744;SDS011;59284;31.390;34.904;2022-08-19T06:26:49;15.88;;;10.88;;
70744;SDS011;59284;31.390;34.904;2022-08-19T06:29:18;14.93;;;10.18;;
70744;SDS011;59284;31.390;34.904;2022-08-19T06:31:46;13.55;;;8.88;;
70744;SDS011;59284;31.390;34.904;2022-08-19T06:34:16;13.93;;;9.65;;
70744;SDS011;59284;31.390;34.904;2022-08-19T06:36:44;12.40;;;9.13;;
70744;SDS011;59284;31.390;34.904;2022-08-19T06:39:17;14.98;;;10.95;;
70744;SDS011;59284;31.390;34.904;2022-08-19T06:41:51;13.77;;;9.75;;
70744;SDS011;59284;31.390;34.904;2022-08-19T06:44:23;17.52;;;10.50;;
70744;SDS011;59284;31.390;34.904;2022-08-19T06:46:51;13.15;;;9.57;;
70744;SDS011;59284;31.390;34.904;2022-08-19T06:49:18;14.77;;;9.73;;
70744;SDS011;59284;31.390;34.904;2022-08-19T06:51:44;13.13;;;9.20;;
70744;SDS011;59284;31.390;34.904;2022-08-19T06:54:12;12.20;;;7.80;;
70744;SDS011;59284;31.390;34.904;2022-08-19T06:56:39;10.73;;;8.70;;
70744;SDS011;59284;31.390;34.904;2022-08-19T06:59:09;13.63;;;8.83;;
70744;SDS011;59284;31.390;34.904;2022-08-19T07:01:48;14.73;;;9.77;;
70744;SDS011;59284;31.390;34.904;2022-08-19T07:04:18;12.45;;;9.57;;
70744;SDS011;59284;31.390;34.904;2022-08-19T07:06:48;13.07;;;9.75;;
70744;SDS011;59284;31.390;34.904;2022-08-19T07:09:15;11.48;;;8.80;;
70744;SDS011;59284;31.390;34.904;2022-08-19T07:11:46;13.87;;;9.67;;
70744;SDS011;59284;31.390;34.904;2022-08-19T07:14:17;11.95;;;9.80;;
70744;SDS011;59284;31.390;34.904;2022-08-19T07:16:47;12.82;;;9.70;;
70744;SDS011;59284;31.390;34.904;2022-08-19T07:19:16;12.77;;;9.15;;
70744;SDS011;59284;31.390;34.904;2022-08-19T07:21:47;15.45;;;9.73;;
70744;SDS011;59284;31.390;34.904;2022-08-19T07:24:14;18.40;;;9.57;;
70744;SDS011;59284;31.390;34.904;2022-08-19T07:26:41;13.20;;;9.27;;
70744;SDS011;59284;31.390;34.904;2022-08-19T07:29:08;14.60;;;9.88;;
70744;SDS011;59284;31.390;34.904;2022-08-19T07:31:35;16.33;;;8.30;;
70744;SDS011;59284;31.390;34.904;2022-08-19T07:34:03;14.80;;;8.30;;
70744;SDS011;59284;31.390;34.904;2022-08-19T07:36:35;14.50;;;10.10;;
70744;SDS011;59284;31.390;34.904;2022-08-19T07:39:07;13.00;;;9.63;;
70744;SDS011;59284;31.390;34.904;2022-08-19T07:41:35;14.30;;;9.40;;
70744;SDS011;59284;31.390;34.904;2022-08-19T07:44:02;11.27;;;8.45;;
70744;SDS011;59284;31.390;34.904;2022-08-19T07:46:33;12.60;;;8.65;;
70744;SDS011;59284;31.390;34.904;2022-08-19T07:49:03;13.73;;;9.17;;
70744;SDS011;59284;31.390;34.904;2022-08-19T07:51:30;15.80;;;9.02;;
70744;SDS011;59284;31.390;34.904;2022-08-19T07:53:56;14.32;;;9.88;;
70744;SDS011;59284;31.390;34.904;2022-08-19T07:56:22;11.13;;;8.90;;
70744;SDS011;59284;31.390;34.904;2022-08-19T07:58:51;17.20;;;9.25;;
70744;SDS011;59284;31.390;34.904;2022-08-19T08:01:24;15.10;;;9.43;;
70744;SDS011;59284;31.390;34.904;2022-08-19T08:03:53;12.43;;;8.40;;
70744;SDS011;59284;31.390;34.904;2022-08-19T08:06:39;13.82;;;8.48;;
70744;SDS011;59284;31.390;34.904;2022-08-19T08:09:28;12.02;;;8.40;;
70744;SDS011;59284;31.390;34.904;2022-08-19T08:12:09;15.68;;;8.57;;
70744;SDS011;59284;31.390;34.904;2022-08-19T08:14:44;14.40;;;8.80;;
70744;SDS011;59284;31.390;34.904;2022-08-19T08:17:14;16.58;;;9.32;;
70744;SDS011;59284;31.390;34.904;2022-08-19T08:19:41;10.50;;;7.70;;
70744;SDS011;59284;31.390;34.904;2022-08-19T08:22:09;15.90;;;8.05;;
70744;SDS011;59284;31.390;34.904;2022-08-19T08:25:01;12.20;;;8.25;;
70744;SDS011;59284;31.390;34.904;2022-08-19T08:27:39;11.50;;;8.77;;
70744;SDS011;59284;31.390;34.904;2022-08-19T08:30:09;13.00;;;8.40;;
70744;SDS011;59284;31.390;34.904;2022-08-19T08:32:37;11.63;;;8.40;;
70744;SDS011;59284;31.390;34.904;2022-08-19T08:35:05;14.50;;;7.93;;
70744;SDS011;59284;31.390;34.904;2022-08-19T08:37:35;12.85;;;9.20;;
70744;SDS011;59284;31.390;34.904;2022-08-19T08:40:48;15.97;;;9.07;;
70744;SDS011;59284;31.390;34.904;2022-08-19T08:42:57;12.35;;;8.55;;
70744;SDS011;59284;31.390;34.904;2022-08-19T08:45:56;10.73;;;7.43;;
70744;SDS011;59284;31.390;34.904;2022-08-19T08:54:28;16.53;;;7.80;;
70744;SDS011;59284;31.390;34.904;2022-08-19T08:57:10;10.93;;;7.40;;
70744;SDS011;59284;31.390;34.904;2022-08-19T08:59:57;10.88;;;7.57;;
70744;SDS011;59284;31.390;34.904;2022-08-19T09:02:25;12.00;;;7.40;;
70744;SDS011;59284;31.390;34.904;2022-08-19T09:04:51;18.58;;;7.35;;
70744;SDS011;59284;31.390;34.904;2022-08-19T09:13:20;12.85;;;7.25;;
70744;SDS011;59284;31.390;34.904;2022-08-19T09:16:05;12.82;;;7.55;;
70744;SDS011;59284;31.390;34.904;2022-08-19T09:18:46;9.75;;;7.10;;
70744;SDS011;59284;31.390;34.904;2022-08-19T09:21:21;11.87;;;7.53;;
70744;SDS011;59284;31.390;34.904;2022-08-19T09:23:50;11.80;;;7.10;;
70744;SDS011;59284;31.390;34.904;2022-08-19T09:26:18;10.63;;;6.28;;
70744;SDS011;59284;31.390;34.904;2022-08-19T09:28:46;10.70;;;6.75;;
70744;SDS011;59284;31.390;34.904;2022-08-19T09:31:14;16.33;;;7.85;;
70744;SDS011;59284;31.390;34.904;2022-08-19T09:33:42;11.37;;;6.30;;
70744;SDS011;59284;31.390;34.904;2022-08-19T09:36:13;10.43;;;6.82;;
70744;SDS011;59284;31.390;34.904;2022-08-19T09:38:41;8.73;;;6.70;;
70744;SDS011;59284;31.390;34.904;2022-08-19T09:41:18;10.00;;;6.60;;
70744;SDS011;59284;31.390;34.904;2022-08-19T09:43:46;12.00;;;6.22;;
70744;SDS011;59284;31.390;34.904;2022-08-19T09:46:18;11.33;;;6.63;;
70744;SDS011;59284;31.390;34.904;2022-08-19T09:48:46;14.15;;;6.60;;
70744;SDS011;59284;31.390;34.904;2022-08-19T09:51:15;9.77;;;6.18;;
70744;SDS011;59284;31.390;34.904;2022-08-19T09:53:44;10.63;;;6.32;;
70744;SDS011;59284;31.390;34.904;2022-08-19T09:56:11;14.85;;;6.43;;
70744;SDS011;59284;31.390;34.904;2022-08-19T09:58:38;12.10;;;5.87;;
70744;SDS011;59284;31.390;34.904;2022-08-19T10:01:06;11.02;;;5.55;;
70744;SDS011;59284;31.390;34.904;2022-08-19T10:03:33;11.65;;;6.38;;
70744;SDS011;59284;31.390;34.904;2022-08-19T10:06:02;9.95;;;5.65;;
70744;SDS011;59284;31.390;34.904;2022-08-19T10:08:31;11.27;;;6.32;;
70744;SDS011;59284;31.390;34.904;2022-08-19T10:10:58;12.10;;;6.67;;
70744;SDS011;59284;31.390;34.904;2022-08-19T10:13:27;9.38;;;5.68;;
70744;SDS011;59284;31.390;34.904;2022-08-19T10:15:56;9.02;;;5.63;;
70744;SDS011;59284;31.390;34.904;2022-08-19T10:18:28;9.18;;;5.60;;
70744;SDS011;59284;31.390;34.904;2022-08-19T10:21:01;8.10;;;4.83;;
70744;SDS011;59284;31.390;34.904;2022-08-19T10:23:58;9.00;;;5.40;;
70744;SDS011;59284;31.390;34.904;2022-08-19T10:26:30;10.82;;;5.80;;
70744;SDS011;59284;31.390;34.904;2022-08-19T10:29:02;10.73;;;6.35;;
70744;SDS011;59284;31.390;34.904;2022-08-19T10:31:32;16.50;;;5.28;;
70744;SDS011;59284;31.390;34.904;2022-08-19T10:33:59;11.97;;;6.03;;
70744;SDS011;59284;31.390;34.904;2022-08-19T10:36:27;12.63;;;6.03;;
70744;SDS011;59284;31.390;34.904;2022-08-19T10:38:55;12.55;;;6.40;;
70744;SDS011;59284;31.390;34.904;2022-08-19T10:41:41;11.38;;;5.55;;
70744;SDS011;59284;31.390;34.904;2022-08-19T10:44:10;11.55;;;6.53;;
70744;SDS011;59284;31.390;34.904;2022-08-19T10:46:41;9.70;;;5.53;;
70744;SDS011;59284;31.390;34.904;2022-08-19T10:49:14;11.50;;;5.68;;
70744;SDS011;59284;31.390;34.904;2022-08-19T10:51:40;15.18;;;6.15;;
70744;SDS011;59284;31.390;34.904;2022-08-19T10:54:25;13.25;;;6.32;;
70744;SDS011;59284;31.390;34.904;2022-08-19T10:57:11;15.23;;;6.78;;
70744;SDS011;59284;31.390;34.904;2022-08-19T10:59:38;12.07;;;7.13;;
70744;SDS011;59284;31.390;34.904;2022-08-19T11:02:05;13.82;;;6.68;;
70744;SDS011;59284;31.390;34.904;2022-08-19T11:04:34;14.13;;;6.30;;
70744;SDS011;59284;31.390;34.904;2022-08-19T11:07:01;15.38;;;7.53;;
70744;SDS011;59284;31.390;34.904;2022-08-19T11:09:28;16.63;;;7.30;;
70744;SDS011;59284;31.390;34.904;2022-08-19T11:11:54;15.47;;;7.03;;
70744;SDS011;59284;31.390;34.904;2022-08-19T11:14:23;14.13;;;7.30;;
70744;SDS011;59284;31.390;34.904;2022-08-19T11:16:51;19.05;;;7.47;;
70744;SDS011;59284;31.390;34.904;2022-08-19T11:19:20;16.50;;;7.30;;
70744;SDS011;59284;31.390;34.904;2022-08-19T11:21:49;13.70;;;7.20;;
70744;SDS011;59284;31.390;34.904;2022-08-19T11:24:17;13.77;;;6.78;;
70744;SDS011;59284;31.390;34.904;2022-08-19T11:26:45;12.98;;;7.13;;
70744;SDS011;59284;31.390;34.904;2022-08-19T11:29:18;10.80;;;7.07;;
70744;SDS011;59284;31.390;34.904;2022-08-19T11:31:48;13.70;;;7.07;;
70744;SDS011;59284;31.390;34.904;2022-08-19T11:34:15;10.35;;;6.72;;
70744;SDS011;59284;31.390;34.904;2022-08-19T11:36:44;12.52;;;7.30;;
70744;SDS011;59284;31.390;34.904;2022-08-19T11:39:13;11.32;;;6.85;;
70744;SDS011;59284;31.390;34.904;2022-08-19T11:41:41;14.45;;;6.70;;
70744;SDS011;59284;31.390;34.904;2022-08-19T11:44:07;10.13;;;6.97;;
70744;SDS011;59284;31.390;34.904;2022-08-19T11:46:34;12.80;;;6.03;;
70744;SDS011;59284;31.390;34.904;2022-08-19T11:49:02;14.07;;;6.72;;
70744;SDS011;59284;31.390;34.904;2022-08-19T11:51:30;14.60;;;5.93;;
70744;SDS011;59284;31.390;34.904;2022-08-19T11:53:59;9.80;;;6.55;;
70744;SDS011;59284;31.390;34.904;2022-08-19T11:56:26;14.07;;;6.77;;
70744;SDS011;59284;31.390;34.904;2022-08-19T11:58:53;12.02;;;5.97;;
70744;SDS011;59284;31.390;34.904;2022-08-19T12:01:22;10.43;;;6.40;;
70744;SDS011;59284;31.390;34.904;2022-08-19T12:03:49;15.23;;;6.30;;
70744;SDS011;59284;31.390;34.904;2022-08-19T12:06:21;13.57;;;5.80;;
70744;SDS011;59284;31.390;34.904;2022-08-19T12:08:50;13.10;;;6.27;;
70744;SDS011;59284;31.390;34.904;2022-08-19T12:11:17;13.90;;;5.80;;
70744;SDS011;59284;31.390;34.904;2022-08-19T12:13:43;10.15;;;5.35;;
70744;SDS011;59284;31.390;34.904;2022-08-19T12:16:12;10.90;;;5.30;;
70744;SDS011;59284;31.390;34.904;2022-08-19T12:18:44;10.83;;;6.70;;
70744;SDS011;59284;31.390;34.904;2022-08-19T12:21:14;12.07;;;5.82;;
70744;SDS011;59284;31.390;34.904;2022-08-19T12:23:46;12.02;;;5.90;;
70744;SDS011;59284;31.390;34.904;2022-08-19T12:26:13;8.18;;;5.78;;
70744;SDS011;59284;31.390;34.904;2022-08-19T12:28:39;11.43;;;5.40;;
70744;SDS011;59284;31.390;34.904;2022-08-19T12:31:06;12.57;;;5.67;;
70744;SDS011;59284;31.390;34.904;2022-08-19T12:33:33;8.88;;;5.22;;
70744;SDS011;59284;31.390;34.904;2022-08-19T12:36:00;11.60;;;5.38;;
70744;SDS011;59284;31.390;34.904;2022-08-19T12:38:33;9.30;;;5.60;;
70744;SDS011;59284;31.390;34.904;2022-08-19T12:40:59;10.50;;;6.07;;
70744;SDS011;59284;31.390;34.904;2022-08-19T12:43:29;11.20;;;5.63;;
70744;SDS011;59284;31.390;34.904;2022-08-19T12:45:55;12.38;;;6.15;;
70744;SDS011;59284;31.390;34.904;2022-08-19T12:48:21;9.00;;;5.20;;
70744;SDS011;59284;31.390;34.904;2022-08-19T12:50:52;14.67;;;5.67;;
70744;SDS011;59284;31.390;34.904;2022-08-19T12:53:30;11.20;;;5.45;;
70744;SDS011;59284;31.390;34.904;2022-08-19T12:55:56;9.68;;;5.38;;
70744;SDS011;59284;31.390;34.904;2022-08-19T12:58:25;12.83;;;5.00;;
70744;SDS011;59284;31.390;34.904;2022-08-19T13:00:51;14.68;;;5.30;;
70744;SDS011;59284;31.390;34.904;2022-08-19T13:03:17;10.75;;;4.85;;
70744;SDS011;59284;31.390;34.904;2022-08-19T13:05:43;10.93;;;5.50;;
70744;SDS011;59284;31.390;34.904;2022-08-19T13:08:10;12.02;;;5.60;;
70744;SDS011;59284;31.390;34.904;2022-08-19T13:10:36;8.32;;;5.40;;
70744;SDS011;59284;31.390;34.904;2022-08-19T13:13:05;10.95;;;5.18;;
70744;SDS011;59284;31.390;34.904;2022-08-19T13:15:33;9.10;;;4.90;;
70744;SDS011;59284;31.390;34.904;2022-08-19T13:18:00;9.33;;;4.80;;
70744;SDS011;59284;31.390;34.904;2022-08-19T13:20:26;12.75;;;5.32;;
70744;SDS011;59284;31.390;34.904;2022-08-19T13:22:53;11.93;;;5.07;;
70744;SDS011;59284;31.390;34.904;2022-08-19T13:25:22;9.05;;;4.35;;
70744;SDS011;59284;31.390;34.904;2022-08-19T13:27:49;10.07;;;4.70;;
70744;SDS011;59284;31.390;34.904;2022-08-19T13:30:16;10.77;;;4.57;;
70744;SDS011;59284;31.390;34.904;2022-08-19T13:33:02;13.52;;;4.85;;
70744;SDS011;59284;31.390;34.904;2022-08-19T13:35:42;12.32;;;5.32;;
70744;SDS011;59284;31.390;34.904;2022-08-19T13:38:21;10.68;;;4.72;;
70744;SDS011;59284;31.390;34.904;2022-08-19T13:40:48;10.15;;;4.75;;
70744;SDS011;59284;31.390;34.904;2022-08-19T13:43:15;12.50;;;4.37;;
70744;SDS011;59284;31.390;34.904;2022-08-19T13:45:42;10.15;;;4.65;;
70744;SDS011;59284;31.390;34.904;2022-08-19T13:48:08;8.88;;;4.68;;
70744;SDS011;59284;31.390;34.904;2022-08-19T13:50:35;10.07;;;4.80;;
70744;SDS011;59284;31.390;34.904;2022-08-19T13:53:06;8.23;;;4.15;;
70744;SDS011;59284;31.390;34.904;2022-08-19T13:55:33;10.40;;;4.70;;
70744;SDS011;59284;31.390;34.904;2022-08-19T13:58:01;7.45;;;4.13;;
70744;SDS011;59284;31.390;34.904;2022-08-19T14:00:28;10.65;;;4.35;;
70744;SDS011;59284;31.390;34.904;2022-08-19T14:02:58;6.80;;;4.37;;
70744;SDS011;59284;31.390;34.904;2022-08-19T14:05:26;10.40;;;4.07;;
70744;SDS011;59284;31.390;34.904;2022-08-19T14:07:56;9.00;;;4.32;;
70744;SDS011;59284;31.390;34.904;2022-08-19T14:10:22;9.93;;;4.03;;
70744;SDS011;59284;31.390;34.904;2022-08-19T14:12:51;14.07;;;4.03;;
70744;SDS011;59284;31.390;34.904;2022-08-19T14:15:20;10.60;;;4.13;;
70744;SDS011;59284;31.390;34.904;2022-08-19T14:17:47;7.55;;;4.10;;
70744;SDS011;59284;31.390;34.904;2022-08-19T14:20:15;7.72;;;3.70;;
70744;SDS011;59284;31.390;34.904;2022-08-19T14:22:43;11.70;;;3.90;;
70744;SDS011;59284;31.390;34.904;2022-08-19T14:25:16;10.75;;;5.53;;
70744;SDS011;59284;31.390;34.904;2022-08-19T14:27:45;6.87;;;3.73;;
70744;SDS011;59284;31.390;34.904;2022-08-19T14:30:15;8.25;;;4.20;;
70744;SDS011;59284;31.390;34.904;2022-08-19T14:32:43;11.48;;;4.78;;
70744;SDS011;59284;31.390;34.904;2022-08-19T14:35:09;11.50;;;4.17;;
70744;SDS011;59284;31.390;34.904;2022-08-19T14:37:37;7.50;;;3.75;;
70744;SDS011;59284;31.390;34.904;2022-08-19T14:40:05;8.98;;;4.05;;
70744;SDS011;59284;31.390;34.904;2022-08-19T14:42:33;12.88;;;4.25;;